Archival Weather

Snohomish County (Paine Fld)

Everett, Washington (KPAE)

Report from: Sunday, November 5, 2023 4:53 PM PST
Current time: Monday, June 24, 2024 3:39 AM PDT

Current weather – Weather history – Daily summaries
Weather forecast

Temperature12.8°C (55.0°F)
Dew point8.3°C (46.9°F)
Winds 4 kts (2.1 m/s, 4.6 mph) South-Southwest (210°)
Visibility10 mi. (16.1 km)
Clouds Ceiling: Broken clouds 5,500 ft. (1,676 m)
Overcast 7,000 ft. (2,134 m)
Altimeter29.71 in.Hg (1006 mB)
PrecipitiationTrace
Precip. events Rain began 11:59 PM
Rain ended 12:09 AM
Rain began 12:26 AM
Rain ended 12:42 AM
Relative humidity74 %
Density altitude135 ft. (41 m)
Sea-level pressure100.6 kPa (1006 mB, 29.71 in.Hg)
Remarks Automated weather observing station with precipitation discriminator
Flight conditions Visual Meteorological Conditions
Raw dataKPAE 060053Z 21004KT 10SM BKN055 OVC070 13/08 A2971 RMK AO2 RAB2359E09B26E42 SLP062 P0000 T01280083
An error has occurred. This application may no longer respond until reloaded. Reload 🗙